createdAt,value
2022-11-06T00:00:44.343Z,4.70
2022-11-06T00:03:13.228Z,4.70
2022-11-06T00:06:00.501Z,4.60
2022-11-06T00:08:31.336Z,4.60
2022-11-06T00:11:00.237Z,4.50
2022-11-06T00:13:29.119Z,4.48
2022-11-06T00:16:01.545Z,4.40
2022-11-06T00:18:30.174Z,4.30
2022-11-06T00:20:58.658Z,4.30
2022-11-06T00:23:27.131Z,4.20
2022-11-06T00:25:56.031Z,4.20
2022-11-06T00:28:24.455Z,4.20
2022-11-06T00:31:00.309Z,4.10
2022-11-06T00:33:28.939Z,4.10
2022-11-06T00:35:57.364Z,4.10
2022-11-06T00:38:25.906Z,4.10
2022-11-06T00:40:54.496Z,4.10
2022-11-06T00:43:23.043Z,4.10
2022-11-06T00:45:51.861Z,4.00
2022-11-06T00:48:20.383Z,4.00
2022-11-06T00:50:48.931Z,3.92
2022-11-06T00:53:17.403Z,3.90
2022-11-06T00:55:45.932Z,3.80
2022-11-06T00:58:14.774Z,3.80
2022-11-06T01:00:43.399Z,3.70
2022-11-06T01:03:11.882Z,3.70
2022-11-06T01:05:41.286Z,3.66
2022-11-06T01:08:09.921Z,3.60
2022-11-06T01:10:38.671Z,3.56
2022-11-06T01:13:07.047Z,3.50
2022-11-06T01:15:37.181Z,3.48
2022-11-06T01:18:05.863Z,3.40
2022-11-06T01:20:34.047Z,3.40
2022-11-06T01:23:02.493Z,3.30
2022-11-06T01:25:30.952Z,3.28
2022-11-06T01:27:59.413Z,3.20
2022-11-06T01:30:27.871Z,3.20
2022-11-06T01:32:56.283Z,3.10
2022-11-06T01:35:24.700Z,3.10
2022-11-06T01:37:53.189Z,3.10
2022-11-06T01:40:21.784Z,3.02
2022-11-06T01:42:50.151Z,3.00
2022-11-06T01:45:33.790Z,2.96
2022-11-06T01:48:02.543Z,2.90
2022-11-06T01:50:31.186Z,2.90
2022-11-06T01:53:01.907Z,2.80
2022-11-06T01:55:35.026Z,2.70
2022-11-06T01:58:04.740Z,2.70
2022-11-06T02:00:33.488Z,2.60
2022-11-06T02:03:02.553Z,2.52
2022-11-06T02:05:31.032Z,2.50
2022-11-06T02:08:00.778Z,2.42
2022-11-06T02:10:29.616Z,2.40
2022-11-06T02:13:08.643Z,2.40
2022-11-06T02:15:44.195Z,2.40
2022-11-06T02:18:35.307Z,2.30
2022-11-06T02:21:20.667Z,2.30
2022-11-06T02:24:24.836Z,2.28
2022-11-06T02:27:05.992Z,2.20
2022-11-06T02:29:38.572Z,2.20
2022-11-06T02:32:11.195Z,2.20
2022-11-06T02:34:40.457Z,2.18
2022-11-06T02:37:12.378Z,2.20
2022-11-06T02:39:42.416Z,2.20
2022-11-06T02:42:11.868Z,2.18
2022-11-06T02:44:40.404Z,2.20
2022-11-06T02:47:10.076Z,2.20
2022-11-06T02:49:42.319Z,2.20
2022-11-06T02:52:13.947Z,2.18
2022-11-06T02:54:46.022Z,2.10
2022-11-06T02:57:15.150Z,2.10
2022-11-06T02:59:48.356Z,2.10
2022-11-06T03:02:20.155Z,2.10
2022-11-06T03:04:51.561Z,2.08
2022-11-06T03:07:23.164Z,2.02
2022-11-06T03:09:52.578Z,2.00
2022-11-06T03:12:25.052Z,2.00
2022-11-06T03:14:56.581Z,2.00
2022-11-06T03:17:30.916Z,2.00
2022-11-06T03:20:03.553Z,2.00
2022-11-06T03:22:35.746Z,1.90
2022-11-06T03:25:13.568Z,1.90
2022-11-06T03:27:49.990Z,1.90
2022-11-06T03:30:18.604Z,1.90
2022-11-06T03:32:50.838Z,2.00
2022-11-06T03:35:23.387Z,2.02
2022-11-06T03:37:56.596Z,2.10
2022-11-06T03:40:27.235Z,2.18
2022-11-06T03:42:57.870Z,2.20
2022-11-06T03:45:27.578Z,2.18
2022-11-06T03:47:59.628Z,2.10
2022-11-06T03:50:30.926Z,2.10
2022-11-06T03:53:02.776Z,2.10
2022-11-06T03:55:34.574Z,2.00
2022-11-06T03:58:06.230Z,2.00
2022-11-06T04:00:36.593Z,2.00
2022-11-06T04:03:08.770Z,1.90
2022-11-06T04:05:42.116Z,1.90
2022-11-06T04:08:29.637Z,1.90
2022-11-06T04:11:19.188Z,1.90
2022-11-06T04:14:01.456Z,1.90
2022-11-06T04:16:33.909Z,1.90
2022-11-06T04:19:02.687Z,2.00
2022-11-06T04:21:56.228Z,2.04
2022-11-06T04:24:50.405Z,2.10
2022-11-06T04:27:29.219Z,2.10
2022-11-06T04:30:04.725Z,2.10
2022-11-06T04:32:40.919Z,2.02
2022-11-06T04:35:15.261Z,2.00
2022-11-06T04:37:47.177Z,2.00
2022-11-06T04:40:21.869Z,2.02
2022-11-06T04:42:54.608Z,2.00
2022-11-06T04:45:25.527Z,2.10
2022-11-06T04:47:54.750Z,2.10
2022-11-06T04:50:24.553Z,2.10
2022-11-06T04:52:53.220Z,2.14
2022-11-06T04:55:22.366Z,2.20
2022-11-06T04:57:50.929Z,2.20
2022-11-06T05:00:19.902Z,2.20
2022-11-06T05:02:48.310Z,2.16
2022-11-06T05:05:17.297Z,2.10
2022-11-06T05:07:45.692Z,2.10
2022-11-06T05:10:14.137Z,2.00
2022-11-06T05:12:42.555Z,1.92
2022-11-06T05:15:11.628Z,1.90
2022-11-06T05:17:40.017Z,1.80
2022-11-06T05:20:09.428Z,1.80
2022-11-06T05:23:00.572Z,1.80
2022-11-06T05:25:31.115Z,1.80
2022-11-06T05:27:59.853Z,1.80
2022-11-06T05:30:28.410Z,1.84
2022-11-06T05:32:56.800Z,1.88
2022-11-06T05:35:25.266Z,1.90
2022-11-06T05:37:58.920Z,1.90
2022-11-06T05:40:27.452Z,1.90
2022-11-06T05:42:56.181Z,1.90
2022-11-06T05:45:24.719Z,1.90
2022-11-06T05:47:53.139Z,1.90
2022-11-06T05:50:21.705Z,1.92
2022-11-06T05:52:50.178Z,1.94
2022-11-06T05:55:19.585Z,1.90
2022-11-06T05:57:48.029Z,1.90
2022-11-06T06:00:17.127Z,1.90
2022-11-06T06:02:45.653Z,1.90
2022-11-06T06:05:14.530Z,1.90
2022-11-06T06:07:43.114Z,1.90
2022-11-06T06:10:11.472Z,1.90
2022-11-06T06:12:40.032Z,1.96
2022-11-06T06:15:09.921Z,2.00
2022-11-06T06:17:38.480Z,2.10
2022-11-06T06:20:10.362Z,2.10
2022-11-06T06:22:39.044Z,2.20
2022-11-06T06:25:17.367Z,2.30
2022-11-06T06:27:50.912Z,2.30
2022-11-06T06:30:19.804Z,2.40
2022-11-06T06:32:48.240Z,2.46
2022-11-06T06:35:17.318Z,2.50
2022-11-06T06:37:50.926Z,2.60
2022-11-06T06:40:19.826Z,2.70
2022-11-06T06:42:48.346Z,2.80
2022-11-06T06:45:17.144Z,2.90
2022-11-06T06:47:45.874Z,3.00
2022-11-06T06:50:14.297Z,3.10
2022-11-06T06:52:42.962Z,3.14
2022-11-06T06:55:11.642Z,3.20
2022-11-06T06:57:40.164Z,3.20
2022-11-06T07:00:11.235Z,3.30
2022-11-06T07:02:39.752Z,3.30
2022-11-06T07:05:08.986Z,3.30
2022-11-06T07:07:37.450Z,3.40
2022-11-06T07:10:07.748Z,3.50
2022-11-06T07:12:36.252Z,3.54
2022-11-06T07:15:06.106Z,3.70
2022-11-06T07:17:34.582Z,3.80
2022-11-06T07:20:04.100Z,3.90
2022-11-06T07:22:37.449Z,4.10
2022-11-06T07:25:07.598Z,4.40
2022-11-06T07:27:36.111Z,4.62
2022-11-06T07:30:05.684Z,4.80
2022-11-06T07:32:34.093Z,4.90
2022-11-06T07:35:02.625Z,5.08
2022-11-06T07:37:31.026Z,5.20
2022-11-06T07:39:59.457Z,5.46
2022-11-06T07:42:28.524Z,5.80
2022-11-06T07:44:59.010Z,6.20
2022-11-06T07:47:30.310Z,6.58
2022-11-06T07:49:59.582Z,6.90
2022-11-06T07:52:27.997Z,7.20
2022-11-06T07:54:56.379Z,7.50
2022-11-06T07:57:24.755Z,7.90
2022-11-06T07:59:53.170Z,8.30
2022-11-06T08:02:21.695Z,8.70
2022-11-06T08:04:50.379Z,9.10
2022-11-06T08:07:18.839Z,9.48
2022-11-06T08:09:47.417Z,9.80
2022-11-06T08:12:15.995Z,10.02
2022-11-06T08:14:44.443Z,10.30
2022-11-06T08:17:12.976Z,10.52
2022-11-06T08:19:41.411Z,10.80
2022-11-06T08:22:10.229Z,11.06
2022-11-06T08:24:38.716Z,11.40
2022-11-06T08:27:07.317Z,11.80
2022-11-06T08:29:40.917Z,12.20
2022-11-06T08:32:09.957Z,12.52
2022-11-06T08:34:38.445Z,12.90
2022-11-06T08:37:06.869Z,13.14
2022-11-06T08:39:35.383Z,13.40
2022-11-06T08:42:04.486Z,13.76
2022-11-06T08:44:32.982Z,14.18
2022-11-06T08:47:01.384Z,14.50
2022-11-06T08:49:29.773Z,14.80
2022-11-06T08:52:01.188Z,15.10
2022-11-06T08:54:30.221Z,15.50
2022-11-06T08:56:59.682Z,15.86
2022-11-06T08:59:28.237Z,16.30
2022-11-06T09:01:58.165Z,16.60
2022-11-06T09:04:26.905Z,16.96
2022-11-06T09:06:57.462Z,17.30
2022-11-06T09:09:31.373Z,17.70
2022-11-06T09:12:00.717Z,17.90
2022-11-06T09:14:29.180Z,18.30
2022-11-06T09:16:58.044Z,18.64
2022-11-06T09:19:26.448Z,19.04
2022-11-06T09:21:55.148Z,19.50
2022-11-06T09:24:43.277Z,19.90
2022-11-06T09:27:12.222Z,20.40
2022-11-06T09:29:43.390Z,20.70
2022-11-06T09:32:11.807Z,20.90
2022-11-06T09:34:40.356Z,20.90
2022-11-06T09:37:08.800Z,21.10
2022-11-06T09:39:37.400Z,21.40
2022-11-06T09:42:12.906Z,21.80
2022-11-06T09:44:53.774Z,22.20
2022-11-06T09:47:26.752Z,22.40
2022-11-06T09:49:56.460Z,22.50
2022-11-06T09:52:30.076Z,22.70
2022-11-06T09:55:02.437Z,23.10
2022-11-06T09:57:37.078Z,23.42
2022-11-06T10:00:07.861Z,23.80
2022-11-06T10:02:41.003Z,24.10
2022-11-06T10:05:18.140Z,24.40
2022-11-06T10:07:47.107Z,25.02
2022-11-06T10:10:17.200Z,25.66
2022-11-06T10:12:58.595Z,25.80
2022-11-06T10:15:28.791Z,25.68
2022-11-06T10:18:04.843Z,26.12
2022-11-06T10:20:39.471Z,26.50
2022-11-06T10:23:17.831Z,26.70
2022-11-06T10:25:53.659Z,26.92
2022-11-06T10:28:34.260Z,27.06
2022-11-06T10:31:11.179Z,27.00
2022-11-06T10:33:52.099Z,26.58
2022-11-06T10:36:23.171Z,26.40
2022-11-06T10:38:52.595Z,26.50
2022-11-06T10:41:24.999Z,26.52
2022-11-06T10:43:57.294Z,26.50
2022-11-06T10:46:29.341Z,26.96
2022-11-06T10:49:00.511Z,27.10
2022-11-06T10:51:54.809Z,27.70
2022-11-06T10:54:30.944Z,28.36
2022-11-06T10:57:18.063Z,28.42
2022-11-06T10:59:47.509Z,28.60
2022-11-06T11:02:24.790Z,28.68
2022-11-06T11:04:57.771Z,29.10
2022-11-06T11:07:29.845Z,28.90
2022-11-06T11:09:58.460Z,29.10
2022-11-06T11:12:29.697Z,29.40
2022-11-06T11:15:13.018Z,29.58
2022-11-06T11:17:42.201Z,29.18
2022-11-06T11:20:34.831Z,29.20
2022-11-06T11:23:07.831Z,29.52
2022-11-06T11:25:36.327Z,29.80
2022-11-06T11:28:05.696Z,30.00
2022-11-06T11:30:34.122Z,29.70
2022-11-06T11:33:12.370Z,29.30
2022-11-06T11:35:40.967Z,29.62
2022-11-06T11:38:13.766Z,30.00
2022-11-06T11:40:42.671Z,29.74
2022-11-06T11:43:23.424Z,29.30
2022-11-06T11:46:12.243Z,29.04
2022-11-06T11:48:45.236Z,27.18
2022-11-06T11:51:17.902Z,24.20
2022-11-06T11:53:46.644Z,21.98
2022-11-06T11:56:30.984Z,20.18
2022-11-06T11:59:06.153Z,18.50
2022-11-06T12:01:39.380Z,17.46
2022-11-06T12:04:17.161Z,16.64
2022-11-06T12:07:00.749Z,15.96
2022-11-06T12:09:31.850Z,15.50
2022-11-06T12:12:01.279Z,15.10
2022-11-06T12:14:34.895Z,14.64
2022-11-06T12:17:18.837Z,14.30
2022-11-06T12:19:51.788Z,14.06
2022-11-06T12:22:25.138Z,13.90
2022-11-06T12:24:57.901Z,13.80
2022-11-06T12:27:28.605Z,13.80
2022-11-06T12:30:03.932Z,13.70
2022-11-06T12:32:47.522Z,13.70
2022-11-06T12:35:21.344Z,13.60
2022-11-06T12:37:56.361Z,13.60
2022-11-06T12:40:28.721Z,13.50
2022-11-06T12:43:06.190Z,13.40
2022-11-06T12:45:43.160Z,13.40
2022-11-06T12:48:22.094Z,13.40
2022-11-06T12:50:54.584Z,13.40
2022-11-06T12:53:34.501Z,13.40
2022-11-06T12:56:12.848Z,13.30
2022-11-06T12:59:13.941Z,13.20
2022-11-06T13:01:47.920Z,13.10
2022-11-06T13:04:40.865Z,13.02
2022-11-06T13:07:34.788Z,13.00
2022-11-06T13:10:13.139Z,13.00
2022-11-06T13:12:45.421Z,13.00
2022-11-06T13:15:23.214Z,12.96
2022-11-06T13:17:55.416Z,12.90
2022-11-06T13:20:29.885Z,12.80
2022-11-06T13:23:04.436Z,12.70
2022-11-06T13:25:39.875Z,12.70
2022-11-06T13:28:26.305Z,12.60
2022-11-06T13:30:55.929Z,12.60
2022-11-06T13:33:26.858Z,12.60
2022-11-06T13:35:55.439Z,12.70
2022-11-06T13:38:27.122Z,12.60
2022-11-06T13:41:03.076Z,12.60
2022-11-06T13:43:35.812Z,12.50
2022-11-06T13:46:08.384Z,12.40
2022-11-06T13:48:43.936Z,12.40
2022-11-06T13:51:20.958Z,12.30
2022-11-06T13:53:59.721Z,12.30
2022-11-06T13:57:08.801Z,12.20
2022-11-06T13:59:58.333Z,12.20
2022-11-06T14:02:57.652Z,12.10
2022-11-06T14:05:48.261Z,12.10
2022-11-06T14:08:20.751Z,12.00
2022-11-06T14:10:54.342Z,12.00
2022-11-06T14:13:27.417Z,11.98
2022-11-06T14:16:05.038Z,11.90
2022-11-06T14:18:34.006Z,11.90
2022-11-06T14:21:49.537Z,11.82
2022-11-06T14:24:33.049Z,11.80
2022-11-06T14:27:02.714Z,11.70
2022-11-06T14:30:00.804Z,11.70
2022-11-06T14:32:43.402Z,11.60
2022-11-06T14:35:43.809Z,11.60
2022-11-06T14:38:18.451Z,11.50
2022-11-06T14:40:46.863Z,11.40
2022-11-06T14:43:18.925Z,11.40
2022-11-06T14:45:52.688Z,11.30
2022-11-06T14:48:28.554Z,11.30
2022-11-06T14:50:57.566Z,11.20
2022-11-06T14:53:29.207Z,11.10
2022-11-06T14:55:59.392Z,11.06
2022-11-06T14:58:30.099Z,11.00
2022-11-06T15:01:01.603Z,10.90
2022-11-06T15:03:34.147Z,10.80
2022-11-06T15:06:07.953Z,10.72
2022-11-06T15:08:59.537Z,10.70
2022-11-06T15:11:49.940Z,10.60
2022-11-06T15:14:56.036Z,10.44
2022-11-06T15:17:34.186Z,10.40
2022-11-06T15:20:21.473Z,10.30
2022-11-06T15:23:10.789Z,10.20
2022-11-06T15:25:41.033Z,10.10
2022-11-06T15:28:14.773Z,10.00
2022-11-06T15:30:48.193Z,9.90
2022-11-06T15:33:21.444Z,9.80
2022-11-06T15:35:50.239Z,9.78
2022-11-06T15:38:20.602Z,9.70
2022-11-06T15:40:51.177Z,9.60
2022-11-06T15:43:32.849Z,9.50
2022-11-06T15:46:07.222Z,9.40
2022-11-06T15:48:36.051Z,9.30
2022-11-06T15:51:19.115Z,9.20
2022-11-06T15:53:47.554Z,9.12
2022-11-06T15:56:17.156Z,9.10
2022-11-06T15:58:46.052Z,9.00
2022-11-06T16:01:14.702Z,8.92
2022-11-06T16:03:48.519Z,8.90
2022-11-06T16:06:17.458Z,8.80
2022-11-06T16:08:46.498Z,8.80
2022-11-06T16:11:16.950Z,8.70
2022-11-06T16:13:46.304Z,8.68
2022-11-06T16:16:33.974Z,8.60
2022-11-06T16:19:03.852Z,8.50
2022-11-06T16:21:34.041Z,8.50
2022-11-06T16:24:04.172Z,8.40
2022-11-06T16:26:40.042Z,8.30
2022-11-06T16:29:15.685Z,8.28
2022-11-06T16:31:44.834Z,8.20
2022-11-06T16:34:32.977Z,8.10
2022-11-06T16:37:02.950Z,8.00
2022-11-06T16:39:50.488Z,8.00
2022-11-06T16:42:26.250Z,7.90
2022-11-06T16:45:15.567Z,7.84
2022-11-06T16:48:04.040Z,7.80
2022-11-06T16:50:46.461Z,7.70
2022-11-06T16:53:19.845Z,7.70
2022-11-06T16:55:54.876Z,7.60
2022-11-06T16:58:23.744Z,7.50
2022-11-06T17:01:00.547Z,7.50
2022-11-06T17:03:34.441Z,7.40
2022-11-06T17:06:03.249Z,7.38
2022-11-06T17:08:35.800Z,7.30
2022-11-06T17:11:21.078Z,7.22
2022-11-06T17:13:50.378Z,7.20
2022-11-06T17:16:20.735Z,7.10
2022-11-06T17:18:49.590Z,7.10
2022-11-06T17:21:19.876Z,7.00
2022-11-06T17:23:48.629Z,7.00
2022-11-06T17:26:20.312Z,6.90
2022-11-06T17:28:48.817Z,6.90
2022-11-06T17:31:19.160Z,6.90
2022-11-06T17:33:48.026Z,6.82
2022-11-06T17:36:17.887Z,6.80
2022-11-06T17:38:47.287Z,6.80
2022-11-06T17:41:29.019Z,6.70
2022-11-06T17:43:58.058Z,6.70
2022-11-06T17:46:27.102Z,6.60
2022-11-06T17:48:55.819Z,6.60
2022-11-06T17:51:42.497Z,6.50
2022-11-06T17:54:11.135Z,6.50
2022-11-06T17:56:39.845Z,6.50
2022-11-06T17:59:09.480Z,6.40
2022-11-06T18:01:38.510Z,6.40
2022-11-06T18:04:07.521Z,6.40
2022-11-06T18:06:36.239Z,6.30
2022-11-06T18:09:06.174Z,6.30
2022-11-06T18:11:34.780Z,6.30
2022-11-06T18:14:03.371Z,6.26
2022-11-06T18:16:34.045Z,6.20
2022-11-06T18:19:05.482Z,6.20
2022-11-06T18:21:34.112Z,6.20
2022-11-06T18:24:02.806Z,6.10
2022-11-06T18:26:31.241Z,6.10
2022-11-06T18:28:59.964Z,6.10
2022-11-06T18:31:28.421Z,6.10
2022-11-06T18:33:56.787Z,6.00
2022-11-06T18:36:25.212Z,6.00
2022-11-06T18:38:53.593Z,5.90
2022-11-06T18:41:22.508Z,5.90
2022-11-06T18:43:54.684Z,5.90
2022-11-06T18:46:23.553Z,5.80
2022-11-06T18:48:51.966Z,5.80
2022-11-06T18:51:34.013Z,5.80
2022-11-06T18:54:05.632Z,5.74
2022-11-06T18:56:35.452Z,5.70
2022-11-06T18:59:04.229Z,5.70
2022-11-06T19:01:34.857Z,5.70
2022-11-06T19:04:04.212Z,5.70
2022-11-06T19:06:32.983Z,5.70
2022-11-06T19:09:01.934Z,5.70
2022-11-06T19:11:30.456Z,5.60
2022-11-06T19:13:58.986Z,5.60
2022-11-06T19:16:27.549Z,5.60
2022-11-06T19:21:30.512Z,5.50
2022-11-06T19:24:04.021Z,5.50
2022-11-06T19:26:33.805Z,5.50
2022-11-06T19:29:02.601Z,5.50
2022-11-06T19:31:31.680Z,5.44
2022-11-06T19:34:01.006Z,5.40
2022-11-06T19:36:30.097Z,5.40
2022-11-06T19:38:58.963Z,5.30
2022-11-06T19:41:28.123Z,5.30
2022-11-06T19:43:56.566Z,5.30
2022-11-06T19:46:29.786Z,5.20
2022-11-06T19:49:03.902Z,5.20
2022-11-06T19:51:33.287Z,5.20
2022-11-06T19:54:01.800Z,5.16
2022-11-06T19:56:30.312Z,5.10
2022-11-06T19:58:58.811Z,5.10
2022-11-06T20:01:27.346Z,5.10
2022-11-06T20:03:55.873Z,5.10
2022-11-06T20:06:24.357Z,5.10
2022-11-06T20:08:52.887Z,5.10
2022-11-06T20:11:21.405Z,5.10
2022-11-06T20:13:50.150Z,5.00
2022-11-06T20:16:20.687Z,5.00
2022-11-06T20:18:52.243Z,5.00
2022-11-06T20:21:21.068Z,5.00
2022-11-06T20:23:49.922Z,5.00
2022-11-06T20:26:18.503Z,5.00
2022-11-06T20:28:50.815Z,5.00
2022-11-06T20:31:19.624Z,5.00
2022-11-06T20:33:48.089Z,5.00
2022-11-06T20:36:18.814Z,4.92
2022-11-06T20:38:47.430Z,4.90
2022-11-06T20:41:16.421Z,4.90
2022-11-06T20:43:45.132Z,4.90
2022-11-06T20:46:14.887Z,4.90
2022-11-06T20:48:44.346Z,4.90
2022-11-06T20:51:15.121Z,4.90
2022-11-06T20:53:43.529Z,4.90
2022-11-06T20:56:13.476Z,4.90
2022-11-06T20:58:42.377Z,4.88
2022-11-06T21:01:12.654Z,4.80
2022-11-06T21:03:41.338Z,4.80
2022-11-06T21:06:10.371Z,4.80
2022-11-06T21:08:40.092Z,4.80
2022-11-06T21:11:10.943Z,4.80
2022-11-06T21:13:40.235Z,4.78
2022-11-06T21:16:12.819Z,4.74
2022-11-06T21:18:41.431Z,4.70
2022-11-06T21:21:11.716Z,4.70
2022-11-06T21:23:40.667Z,4.70
2022-11-06T21:26:10.178Z,4.70
2022-11-06T21:28:40.445Z,4.70
2022-11-06T21:31:10.376Z,4.70
2022-11-06T21:33:40.914Z,4.70
2022-11-06T21:36:11.386Z,4.70
2022-11-06T21:38:40.075Z,4.70
2022-11-06T21:41:10.142Z,4.68
2022-11-06T21:43:38.720Z,4.60
2022-11-06T21:46:10.359Z,4.60
2022-11-06T21:48:46.458Z,4.60
2022-11-06T21:51:19.283Z,4.60
2022-11-06T21:54:05.968Z,4.60
2022-11-06T21:56:35.203Z,4.60
2022-11-06T21:59:05.078Z,4.60
2022-11-06T22:01:33.888Z,4.60
2022-11-06T22:04:02.442Z,4.50
2022-11-06T22:06:30.946Z,4.50
2022-11-06T22:09:01.199Z,4.50
2022-11-06T22:11:31.194Z,4.44
2022-11-06T22:14:01.963Z,4.40
2022-11-06T22:16:32.583Z,4.40
2022-11-06T22:19:01.794Z,4.40
2022-11-06T22:21:30.898Z,4.40
2022-11-06T22:23:59.667Z,4.40
2022-11-06T22:26:29.942Z,4.40
2022-11-06T22:29:00.074Z,4.40
2022-11-06T22:31:29.298Z,4.40
2022-11-06T22:33:58.777Z,4.40
2022-11-06T22:36:27.296Z,4.40
2022-11-06T22:38:57.147Z,4.40
2022-11-06T22:41:25.743Z,4.40
2022-11-06T22:43:58.445Z,4.40
2022-11-06T22:46:27.350Z,4.40
2022-11-06T22:48:56.218Z,4.40
2022-11-06T22:51:25.898Z,4.40
2022-11-06T22:53:54.610Z,4.40
2022-11-06T22:56:24.397Z,4.40
2022-11-06T22:58:54.705Z,4.40
2022-11-06T23:01:24.893Z,4.40
2022-11-06T23:03:56.048Z,4.40
2022-11-06T23:06:25.203Z,4.40
2022-11-06T23:08:53.967Z,4.40
2022-11-06T23:11:23.568Z,4.36
2022-11-06T23:13:52.489Z,4.30
2022-11-06T23:16:43.422Z,4.30
2022-11-06T23:19:14.050Z,4.30
2022-11-06T23:21:44.450Z,4.30
2022-11-06T23:24:12.943Z,4.30
2022-11-06T23:26:42.547Z,4.32
2022-11-06T23:29:11.149Z,4.40
2022-11-06T23:31:40.542Z,4.40
2022-11-06T23:34:09.033Z,4.40
2022-11-06T23:36:37.474Z,4.40
2022-11-06T23:39:06.241Z,4.40
2022-11-06T23:41:44.915Z,4.40
2022-11-06T23:44:32.255Z,4.30
2022-11-06T23:47:01.077Z,4.30
2022-11-06T23:49:29.726Z,4.28
2022-11-06T23:51:58.651Z,4.20
2022-11-06T23:54:26.999Z,4.20
2022-11-06T23:56:55.686Z,4.10
2022-11-06T23:59:24.401Z,4.10
